Time;durP1;ratioP1;P1;durP2;ratioP2;P2;SDS_P1;SDS_P2;PMS_P1;PMS_P2;Temp;Humidity;BMP_temperature;BMP_pressure;BME280_temperature;BME280_humidity;BME280_pressure;Samples;Min_cycle;Max_cycle;Signal;HPM_P1;HPM_P2
2021/08/28 04:20:14;;;;;;;25.20;23.50;;;15.10;99.90;;;;;;5379356;23;20646;-72
2021/08/28 04:22:41;;;;;;;23.80;22.20;;;15.10;99.90;;;;;;4970821;28;20470;-72
2021/08/28 04:25:09;;;;;;;25.60;23.60;;;15.10;99.90;;;;;;4963916;28;20480;-72
2021/08/28 04:27:36;;;;;;;26.47;24.57;;;15.10;99.90;;;;;;4960265;28;20452;-72
2021/08/28 04:30:03;;;;;;;24.57;22.80;;;15.20;99.90;;;;;;4954991;28;20460;-72
2021/08/28 04:32:30;;;;;;;26.60;24.80;;;15.20;99.90;;;;;;4955835;29;20493;-72
2021/08/28 04:34:57;;;;;;;25.90;24.00;;;15.20;99.90;;;;;;4956059;29;20460;-73
2021/08/28 04:37:25;;;;;;;27.17;25.30;;;15.20;99.90;;;;;;4956043;29;20511;-73
2021/08/28 04:39:52;;;;;;;27.90;25.50;;;15.20;99.90;;;;;;4955692;29;20890;-73
2021/08/28 04:42:19;;;;;;;25.63;23.70;;;15.20;99.90;;;;;;4955614;29;20464;-72
2021/08/28 04:44:45;;;;;;;27.07;25.27;;;15.30;99.90;;;;;;4955702;29;20671;-72
2021/08/28 04:47:12;;;;;;;25.90;24.20;;;15.20;99.90;;;;;;4955720;29;20460;-71
2021/08/28 04:49:39;;;;;;;28.90;26.97;;;15.20;99.90;;;;;;4955835;29;20451;-71
2021/08/28 04:52:06;;;;;;;25.63;23.90;;;15.20;99.90;;;;;;4955731;29;20492;-72
2021/08/28 04:54:34;;;;;;;26.90;25.03;;;15.10;99.90;;;;;;4955220;29;20958;-71
2021/08/28 04:57:01;;;;;;;26.07;24.27;;;15.10;99.90;;;;;;4955544;29;20687;-72
2021/08/28 04:59:28;;;;;;;26.30;24.30;;;15.20;99.90;;;;;;4955990;29;20460;-72
2021/08/28 05:01:55;;;;;;;27.07;24.97;;;15.20;99.90;;;;;;4955740;29;20452;-72
2021/08/28 05:04:22;;;;;;;27.43;25.30;;;15.20;99.90;;;;;;4955757;29;20492;-71
2021/08/28 05:06:48;;;;;;;27.90;25.80;;;15.10;99.90;;;;;;4955799;29;20457;-72
2021/08/28 05:09:15;;;;;;;26.80;25.00;;;15.10;99.90;;;;;;4955271;29;20504;-71
2021/08/28 05:11:43;;;;;;;27.33;25.33;;;15.20;99.90;;;;;;4955283;29;20516;-71
2021/08/28 05:14:10;;;;;;;27.17;25.13;;;15.20;99.90;;;;;;4955089;29;20448;-71
2021/08/28 05:16:36;;;;;;;29.53;27.37;;;15.20;99.90;;;;;;4955093;29;20448;-72
2021/08/28 05:19:03;;;;;;;27.77;25.73;;;15.10;99.90;;;;;;4954538;29;20531;-72
2021/08/28 05:21:31;;;;;;;28.40;26.50;;;15.10;99.90;;;;;;4955030;29;20507;-72
2021/08/28 05:23:57;;;;;;;27.30;25.40;;;15.10;99.90;;;;;;4955128;29;20452;-72
2021/08/28 05:26:24;;;;;;;28.83;26.73;;;15.10;99.90;;;;;;4955247;29;20448;-72
2021/08/28 05:28:52;;;;;;;30.40;28.03;;;15.10;99.90;;;;;;4954862;29;20467;-72
2021/08/28 05:31:19;;;;;;;30.93;28.17;;;15.20;99.90;;;;;;4954673;29;20455;-72
2021/08/28 05:33:46;;;;;;;28.80;26.83;;;15.30;99.90;;;;;;4954583;29;20452;-72
2021/08/28 05:36:13;;;;;;;29.47;27.00;;;15.30;99.90;;;;;;4954851;29;20459;-71
2021/08/28 05:38:39;;;;;;;29.00;27.00;;;15.30;99.90;;;;;;4954681;29;20460;-71
2021/08/28 05:41:06;;;;;;;28.00;26.00;;;15.40;99.90;;;;;;4954447;28;20460;-72
2021/08/28 05:43:33;;;;;;;30.03;27.43;;;15.50;99.90;;;;;;4954493;29;20460;-72
2021/08/28 05:46:01;;;;;;;30.10;27.70;;;15.50;99.90;;;;;;4954213;29;20460;-71
2021/08/28 05:48:27;;;;;;;25.80;23.70;;;15.60;99.90;;;;;;4954613;29;20464;-72
2021/08/28 05:50:54;;;;;;;27.53;25.60;;;15.60;99.90;;;;;;4954688;29;20457;-72
2021/08/28 05:53:21;;;;;;;26.13;24.20;;;15.80;99.90;;;;;;4954213;29;20492;-71
2021/08/28 05:55:47;;;;;;;27.87;25.73;;;15.80;99.90;;;;;;4954327;29;21045;-71
2021/08/28 05:58:14;;;;;;;27.83;25.97;;;15.80;99.90;;;;;;4954316;29;20485;-71
2021/08/28 06:00:41;;;;;;;26.80;24.83;;;15.80;99.90;;;;;;4954379;29;20444;-72
2021/08/28 06:03:09;;;;;;;27.97;26.00;;;15.80;99.90;;;;;;4954450;29;20449;-71
2021/08/28 06:05:35;;;;;;;24.67;23.07;;;15.90;99.90;;;;;;4954159;29;20456;-72
2021/08/28 06:08:02;;;;;;;25.67;23.90;;;15.90;99.90;;;;;;4954021;29;20456;-71
2021/08/28 06:10:29;;;;;;;25.47;23.77;;;15.80;99.90;;;;;;4954155;29;20468;-71
2021/08/28 06:12:55;;;;;;;25.40;23.60;;;15.80;99.90;;;;;;4954431;29;21017;-72
2021/08/28 06:15:22;;;;;;;26.87;24.67;;;16.00;99.90;;;;;;4954463;29;20460;-71
2021/08/28 06:17:49;;;;;;;26.37;24.30;;;16.00;99.90;;;;;;4953642;29;20479;-71
2021/08/28 06:20:17;;;;;;;25.80;23.90;;;16.00;99.90;;;;;;4953639;29;20492;-72
2021/08/28 06:22:44;;;;;;;25.83;23.97;;;16.00;99.90;;;;;;4953861;29;20511;-71
2021/08/28 06:25:11;;;;;;;25.23;23.50;;;16.10;99.90;;;;;;4953798;29;20943;-72
2021/08/28 06:27:37;;;;;;;24.20;22.50;;;16.30;99.90;;;;;;4953761;29;20461;-71
2021/08/28 06:30:05;;;;;;;25.40;23.40;;;16.50;99.90;;;;;;4953898;29;20457;-71
2021/08/28 06:32:32;;;;;;;24.47;22.93;;;16.70;99.90;;;;;;4953798;29;20488;-71
2021/08/28 06:34:58;;;;;;;24.07;22.57;;;16.70;99.90;;;;;;4953914;29;20500;-71
2021/08/28 06:37:26;;;;;;;23.33;21.73;;;16.90;99.90;;;;;;4953805;29;20467;-72
2021/08/28 06:39:53;;;;;;;22.90;21.40;;;16.90;99.90;;;;;;4953626;29;20528;-72
2021/08/28 06:42:20;;;;;;;23.63;22.17;;;17.00;99.90;;;;;;4953562;29;20456;-72
2021/08/28 06:44:46;;;;;;;20.90;19.47;;;17.10;99.90;;;;;;4953560;29;20460;-72
2021/08/28 06:47:13;;;;;;;22.20;20.57;;;17.10;99.90;;;;;;4953257;29;20939;-71
2021/08/28 06:49:40;;;;;;;21.00;19.60;;;16.90;99.90;;;;;;4953755;29;20456;-71
2021/08/28 06:52:07;;;;;;;22.27;20.67;;;16.80;99.90;;;;;;4952330;28;20488;-72
2021/08/28 06:54:35;;;;;;;21.30;20.10;;;16.80;99.90;;;;;;4953262;29;20467;-72
2021/08/28 06:57:02;;;;;;;20.53;19.13;;;16.90;99.90;;;;;;4953319;29;20449;-72
2021/08/28 06:59:28;;;;;;;18.17;17.17;;;17.10;99.90;;;;;;4953074;29;20464;-72
2021/08/28 07:01:55;;;;;;;19.60;18.20;;;17.10;99.90;;;;;;4953162;29;20456;-71
2021/08/28 07:04:22;;;;;;;20.43;19.17;;;16.80;99.90;;;;;;4953255;29;20456;-71
2021/08/28 07:06:48;;;;;;;19.80;18.70;;;16.70;99.90;;;;;;4953109;29;20545;-72
2021/08/28 07:09:15;;;;;;;19.93;18.80;;;16.80;99.90;;;;;;4953025;29;20947;-75
2021/08/28 07:11:43;;;;;;;20.70;19.40;;;16.90;99.90;;;;;;4952744;29;20457;-72
2021/08/28 07:14:10;;;;;;;20.07;18.50;;;16.90;99.90;;;;;;4953129;29;20488;-72
2021/08/28 07:16:36;;;;;;;20.83;19.53;;;16.90;99.90;;;;;;4953208;29;20519;-74
2021/08/28 07:19:03;;;;;;;19.43;18.23;;;17.00;99.90;;;;;;4952604;29;20476;-74
2021/08/28 07:21:30;;;;;;;18.13;17.13;;;17.10;99.90;;;;;;4952652;29;20456;-75
2021/08/28 07:23:56;;;;;;;19.20;17.90;;;17.20;99.90;;;;;;4952670;29;20503;-75
2021/08/28 07:26:23;;;;;;;19.70;18.50;;;17.40;99.90;;;;;;4952613;29;20479;-75
2021/08/28 07:28:51;;;;;;;18.70;17.50;;;17.60;99.90;;;;;;4952302;29;20452;-74
2021/08/28 07:31:18;;;;;;;18.27;17.17;;;17.70;99.90;;;;;;4952143;29;20455;-74
2021/08/28 07:33:45;;;;;;;19.77;18.37;;;17.50;99.90;;;;;;4952283;29;20492;-74
2021/08/28 07:36:12;;;;;;;19.93;18.63;;;17.50;99.90;;;;;;4952310;29;20488;-74
2021/08/28 07:38:39;;;;;;;18.20;17.00;;;17.60;99.90;;;;;;4952347;29;20449;-74
2021/08/28 07:41:05;;;;;;;20.00;18.90;;;17.80;99.90;;;;;;4952317;29;20467;-74
2021/08/28 07:43:32;;;;;;;17.60;16.60;;;17.50;99.90;;;;;;4952244;29;20453;-74
2021/08/28 07:46:00;;;;;;;17.57;16.53;;;17.60;99.90;;;;;;4952064;29;20460;-73
2021/08/28 07:48:27;;;;;;;17.13;16.23;;;17.70;99.90;;;;;;4952178;29;20461;-74
2021/08/28 07:50:54;;;;;;;17.77;16.67;;;17.60;99.90;;;;;;4952266;29;20452;-74
2021/08/28 07:53:20;;;;;;;18.60;17.50;;;17.60;99.90;;;;;;4952257;29;20491;-73
2021/08/28 07:55:47;;;;;;;18.57;17.30;;;17.30;99.90;;;;;;4952099;29;20452;-73
2021/08/28 07:58:14;;;;;;;19.67;18.47;;;17.10;99.90;;;;;;4951975;29;20461;-73
2021/08/28 08:00:40;;;;;;;18.47;17.17;;;17.00;99.90;;;;;;4952035;29;20461;-72
2021/08/28 08:03:08;;;;;;;17.83;16.83;;;17.00;99.90;;;;;;4952715;28;20445;-74
2021/08/28 08:05:35;;;;;;;18.83;17.70;;;17.40;99.90;;;;;;4958221;28;20456;-74
2021/08/28 08:08:02;;;;;;;16.30;15.30;;;18.20;99.90;;;;;;4958443;29;20828;-74
2021/08/28 08:10:28;;;;;;;15.80;15.00;;;19.30;99.90;;;;;;4958473;28;20456;-74
2021/08/28 08:12:55;;;;;;;18.80;17.50;;;19.80;99.90;;;;;;4958521;28;20484;-73
2021/08/28 08:15:22;;;;;;;16.03;15.13;;;19.70;99.90;;;;;;4958321;28;20837;-73
2021/08/28 08:17:49;;;;;;;17.03;15.93;;;19.80;99.90;;;;;;4958213;28;20500;-74
2021/08/28 08:20:17;;;;;;;16.10;14.90;;;20.00;99.90;;;;;;4958045;28;20923;-74
2021/08/28 08:22:44;;;;;;;14.90;14.20;;;20.10;99.90;;;;;;4958290;29;20453;-73
2021/08/28 08:25:11;;;;;;;16.40;15.50;;;20.10;99.90;;;;;;4958406;28;20460;-74
2021/08/28 08:27:38;;;;;;;14.83;14.13;;;20.00;99.90;;;;;;4958504;28;20832;-74
2021/08/28 08:30:06;;;;;;;13.60;12.97;;;20.20;99.90;;;;;;4958183;28;20978;-74
2021/08/28 08:32:33;;;;;;;13.40;12.80;;;20.00;99.90;;;;;;4958165;28;20503;-74
2021/08/28 08:34:59;;;;;;;12.97;12.47;;;19.80;99.90;;;;;;4958317;28;20463;-73
2021/08/28 08:37:27;;;;;;;13.90;13.27;;;19.50;99.90;;;;;;4958540;28;20947;-74
2021/08/28 08:39:54;;;;;;;13.20;12.47;;;19.80;99.90;;;;;;4958075;29;20456;-74
2021/08/28 08:42:24;;;;;;;13.50;12.90;;;19.70;99.90;;;;;;4958192;29;20459;-74
2021/08/28 08:44:52;;;;;;;13.77;13.10;;;19.70;99.90;;;;;;4958200;29;20460;-74
2021/08/28 08:47:20;;;;;;;12.77;12.27;;;19.80;99.90;;;;;;4958016;29;20460;-74
2021/08/28 08:49:49;;;;;;;12.70;12.10;;;20.20;99.90;;;;;;4958069;28;20464;-74
2021/08/28 08:52:19;;;;;;;12.37;11.83;;;20.30;99.90;;;;;;4957817;28;21183;-73
2021/08/28 08:54:48;;;;;;;12.90;12.30;;;20.00;99.90;;;;;;4957954;28;20733;-72
2021/08/28 08:57:15;;;;;;;13.13;12.53;;;19.90;99.90;;;;;;4957934;28;20813;-72
2021/08/28 08:59:42;;;;;;;13.30;12.63;;;19.90;99.90;;;;;;4957973;28;20452;-73
2021/08/28 09:02:08;;;;;;;13.40;12.80;;;19.70;99.90;;;;;;4957900;29;20456;-73
2021/08/28 09:04:35;;;;;;;12.43;11.93;;;19.70;99.90;;;;;;4957847;29;20452;-73
2021/08/28 09:07:03;;;;;;;12.37;11.97;;;19.70;99.90;;;;;;4957801;29;20456;-73
2021/08/28 09:09:30;;;;;;;12.53;12.10;;;19.80;99.90;;;;;;4957840;28;20451;-73
2021/08/28 09:12:00;;;;;;;12.37;11.77;;;19.90;99.90;;;;;;4957727;29;20452;-73
2021/08/28 09:14:27;;;;;;;12.87;12.37;;;19.60;99.90;;;;;;4957835;28;21032;-73
2021/08/28 09:16:54;;;;;;;12.77;12.20;;;19.50;99.90;;;;;;4953983;29;20460;-73
2021/08/28 09:19:34;;;;;;;12.80;12.03;;;19.30;99.90;;;;;;4954585;29;20488;-73
2021/08/28 09:22:01;;;;;;;13.13;12.40;;;19.30;99.90;;;;;;4954679;29;20452;-74
2021/08/28 09:24:42;;;;;;;12.63;12.23;;;19.20;99.90;;;;;;4954619;29;20458;-73
2021/08/28 09:27:11;;;;;;;12.73;12.23;;;19.60;99.90;;;;;;4954872;28;20989;-75
2021/08/28 09:29:43;;;;;;;12.20;11.80;;;19.90;99.90;;;;;;4954730;29;20461;-75
2021/08/28 09:32:12;;;;;;;12.57;12.00;;;19.80;99.90;;;;;;4954841;28;20503;-75
2021/08/28 09:34:41;;;;;;;13.67;12.87;;;20.00;99.90;;;;;;4954533;28;20579;-74
2021/08/28 09:37:08;;;;;;;12.73;12.23;;;19.70;99.90;;;;;;4954729;28;20488;-74
2021/08/28 09:39:40;;;;;;;12.53;12.03;;;19.30;99.90;;;;;;4954528;29;20453;-74
2021/08/28 09:42:09;;;;;;;12.23;11.73;;;19.00;99.90;;;;;;4954436;29;20456;-74
2021/08/28 09:44:39;;;;;;;13.13;12.43;;;18.70;99.90;;;;;;4954245;28;20459;-74
2021/08/28 09:47:14;;;;;;;12.47;11.87;;;18.80;99.90;;;;;;4954241;29;20455;-74
2021/08/28 09:49:42;;;;;;;12.90;12.30;;;18.70;99.90;;;;;;4954252;29;20486;-77
2021/08/28 09:52:14;;;;;;;13.30;12.50;;;18.60;99.90;;;;;;4954403;29;20888;-74
2021/08/28 09:54:42;;;;;;;13.77;12.97;;;18.70;99.90;;;;;;4954112;29;20492;-74
2021/08/28 09:57:09;;;;;;;13.03;12.53;;;18.80;99.90;;;;;;4954392;29;20464;-74
2021/08/28 09:59:37;;;;;;;12.37;11.87;;;18.50;99.90;;;;;;4954291;29;20463;-74
2021/08/28 10:02:06;;;;;;;12.03;11.57;;;18.10;99.90;;;;;;4954100;29;20456;-74
2021/08/28 10:04:49;;;;;;;13.37;12.87;;;17.80;99.90;;;;;;4953985;29;20444;-74
2021/08/28 10:07:19;;;;;;;13.80;12.80;;;17.40;99.90;;;;;;4954023;29;20939;-73
2021/08/28 10:09:46;;;;;;;13.77;13.17;;;17.20;99.90;;;;;;4954299;28;20440;-75
2021/08/28 10:12:14;;;;;;;13.60;13.10;;;17.10;99.90;;;;;;4953731;29;20870;-73
2021/08/28 10:14:43;;;;;;;16.10;15.50;;;17.00;99.90;;;;;;4953831;29;20499;-73
2021/08/28 10:17:11;;;;;;;16.07;15.47;;;17.00;99.90;;;;;;4954087;29;20463;-73
2021/08/28 10:19:38;;;;;;;17.00;16.40;;;17.00;99.90;;;;;;4953555;29;20496;-74
2021/08/28 10:22:05;;;;;;;17.80;17.10;;;16.90;99.90;;;;;;4953711;29;20452;-75
2021/08/28 10:24:32;;;;;;;18.40;17.60;;;17.00;99.90;;;;;;4953548;29;20497;-75
2021/08/28 10:27:00;;;;;;;18.60;17.83;;;16.80;99.90;;;;;;4953330;28;20855;-75
2021/08/28 10:29:28;;;;;;;18.97;18.17;;;16.80;99.90;;;;;;4953535;29;20456;-75
2021/08/28 10:31:56;;;;;;;19.73;18.93;;;16.80;99.90;;;;;;4953618;29;20456;-75
2021/08/28 10:34:23;;;;;;;19.77;19.07;;;16.90;99.90;;;;;;4953306;29;20901;-75
2021/08/28 10:36:51;;;;;;;20.53;19.73;;;16.90;99.90;;;;;;4953319;29;20523;-75
2021/08/28 10:39:18;;;;;;;21.00;20.20;;;16.70;99.90;;;;;;4953218;29;20455;-75
2021/08/28 10:41:45;;;;;;;21.10;20.30;;;16.50;99.90;;;;;;4953213;29;20452;-75
2021/08/28 10:44:12;;;;;;;21.30;20.40;;;16.60;99.90;;;;;;4953113;29;20468;-75
2021/08/28 10:46:42;;;;;;;23.03;21.97;;;16.70;99.90;;;;;;4953346;29;20456;-75
2021/08/28 10:49:12;;;;;;;22.23;21.20;;;17.00;99.90;;;;;;4953127;28;20475;-73
2021/08/28 10:51:41;;;;;;;22.40;21.50;;;17.20;99.90;;;;;;4953165;29;20456;-74
2021/08/28 10:54:10;;;;;;;22.37;21.47;;;17.20;99.90;;;;;;4953163;28;20484;-74
2021/08/28 10:56:43;;;;;;;22.97;21.87;;;17.30;99.90;;;;;;4953062;29;20456;-74
2021/08/28 10:59:26;;;;;;;21.23;19.97;;;17.50;99.90;;;;;;4953242;28;20871;-73
2021/08/28 11:02:07;;;;;;;19.23;18.30;;;17.60;99.90;;;;;;4950943;29;20460;-73
2021/08/28 11:04:40;;;;;;;17.70;17.00;;;17.80;99.90;;;;;;4953731;29;20444;-73
2021/08/28 11:07:27;;;;;;;17.03;16.23;;;17.70;99.90;;;;;;4957323;29;20483;-73
2021/08/28 11:10:19;;;;;;;14.13;13.63;;;17.80;99.90;;;;;;4957429;29;20452;-73
2021/08/28 11:12:58;;;;;;;12.37;11.87;;;18.70;99.90;;;;;;4953466;29;20452;-74
2021/08/28 11:15:52;;;;;;;14.37;13.60;;;20.60;99.90;;;;;;4952831;29;20496;-75
2021/08/28 11:18:43;;;;;;;12.90;12.50;;;22.40;99.90;;;;;;4952512;29;20571;-76
2021/08/28 11:21:12;;;;;;;12.73;12.27;;;22.60;99.90;;;;;;4952902;28;20512;-78
2021/08/28 11:23:47;;;;;;;12.17;11.77;;;22.70;99.70;;;;;;4952846;29;20954;-81
2021/08/28 11:26:33;;;;;;;12.77;12.27;;;23.50;99.90;;;;;;4952483;29;20451;-82
2021/08/28 11:29:00;;;;;;;12.10;11.70;;;24.10;97.20;;;;;;4952618;29;20947;-84
2021/08/28 11:31:46;;;;;;;11.83;11.37;;;23.80;97.10;;;;;;4952595;29;20503;-83
2021/08/28 11:34:13;;;;;;;12.83;12.33;;;24.10;98.30;;;;;;4952353;28;20583;-83
2021/08/28 11:36:41;;;;;;;12.77;12.27;;;24.70;96.30;;;;;;4952500;29;20461;-81
2021/08/28 11:39:22;;;;;;;12.00;11.60;;;25.30;98.10;;;;;;4951812;28;20808;-81
2021/08/28 11:41:49;;;;;;;11.90;11.50;;;25.70;95.30;;;;;;4952323;28;20488;-80
2021/08/28 11:44:16;;;;;;;12.30;11.80;;;25.40;92.60;;;;;;4952073;29;20483;-78
2021/08/28 11:46:47;;;;;;;12.50;12.00;;;24.90;93.10;;;;;;4952256;29;20453;-78
2021/08/28 11:49:14;;;;;;;11.93;11.43;;;24.60;94.40;;;;;;4952234;29;20468;-78
2021/08/28 11:51:42;;;;;;;11.03;10.70;;;24.60;94.10;;;;;;4952328;29;20825;-77
2021/08/28 11:54:11;;;;;;;11.67;11.27;;;24.40;94.00;;;;;;4952236;28;20524;-76
2021/08/28 11:56:37;;;;;;;12.30;11.90;;;23.70;94.90;;;;;;4952321;28;20459;-75
2021/08/28 11:59:07;;;;;;;11.60;11.20;;;23.50;94.80;;;;;;4952219;29;20452;-76
2021/08/28 12:01:35;;;;;;;11.30;10.90;;;23.20;95.60;;;;;;4951958;29;20555;-76
2021/08/28 12:04:05;;;;;;;12.47;11.97;;;23.40;94.50;;;;;;4951985;29;20448;-76
2021/08/28 12:06:34;;;;;;;11.83;11.33;;;23.30;94.40;;;;;;4952337;29;20449;-76
2021/08/28 12:09:04;;;;;;;10.90;10.60;;;23.10;94.40;;;;;;4951907;29;20456;-75
2021/08/28 12:11:31;;;;;;;10.50;10.20;;;23.30;94.20;;;;;;4951889;29;20506;-75
2021/08/28 12:14:02;;;;;;;11.60;11.10;;;23.90;93.60;;;;;;4951696;29;20492;-75
2021/08/28 12:16:31;;;;;;;12.43;11.83;;;23.60;93.30;;;;;;4952104;29;20467;-75
2021/08/28 12:19:00;;;;;;;11.73;11.43;;;23.90;93.50;;;;;;4951510;29;20477;-74
2021/08/28 12:21:27;;;;;;;11.20;10.87;;;25.20;92.20;;;;;;4951918;29;20460;-75
2021/08/28 12:23:54;;;;;;;11.83;11.53;;;26.60;88.60;;;;;;4951967;29;20816;-75
2021/08/28 12:26:22;;;;;;;11.83;11.43;;;28.10;79.90;;;;;;4952068;29;20444;-74
2021/08/28 12:28:50;;;;;;;11.80;11.40;;;27.50;79.60;;;;;;4951753;29;20453;-75
2021/08/28 12:31:18;;;;;;;12.07;11.70;;;26.30;82.20;;;;;;4951677;29;20448;-75
2021/08/28 12:33:45;;;;;;;12.07;11.67;;;27.20;82.00;;;;;;4951566;29;20475;-75
2021/08/28 12:36:30;;;;;;;11.80;11.40;;;26.50;83.10;;;;;;4951721;29;20460;-75
2021/08/28 12:39:07;;;;;;;11.53;11.23;;;26.40;82.00;;;;;;4951772;29;20448;-74
2021/08/28 12:41:35;;;;;;;11.17;10.87;;;26.20;81.90;;;;;;4951655;29;20507;-74
2021/08/28 12:44:02;;;;;;;12.33;11.93;;;26.80;82.30;;;;;;4951675;29;20563;-74
2021/08/28 12:46:29;;;;;;;12.20;11.80;;;27.50;80.70;;;;;;4951625;29;20874;-75
2021/08/28 12:49:12;;;;;;;11.33;11.03;;;27.60;77.20;;;;;;4951769;29;20456;-74
2021/08/28 12:51:52;;;;;;;11.63;11.23;;;27.00;78.20;;;;;;4952323;29;20455;-74
2021/08/28 12:54:20;;;;;;;11.97;11.37;;;26.60;79.50;;;;;;4955244;29;20510;-75
2021/08/28 12:56:54;;;;;;;11.90;11.40;;;25.80;80.50;;;;;;4955105;29;20841;-75
2021/08/28 12:59:22;;;;;;;11.00;10.70;;;25.60;81.70;;;;;;4955240;29;20456;-75
2021/08/28 13:01:53;;;;;;;11.10;10.80;;;25.00;83.10;;;;;;4955044;29;20966;-74
2021/08/28 13:04:23;;;;;;;11.10;10.80;;;25.20;84.10;;;;;;4955035;29;20448;-73
2021/08/28 13:07:15;;;;;;;10.90;10.60;;;25.00;85.50;;;;;;4955168;29;20519;-74
2021/08/28 13:10:10;;;;;;;11.40;11.10;;;25.00;84.10;;;;;;4955041;29;20463;-74
2021/08/28 13:12:48;;;;;;;11.43;11.03;;;24.70;84.00;;;;;;4952573;29;20962;-75
2021/08/28 13:15:32;;;;;;;11.30;10.90;;;23.70;82.90;;;;;;4954828;29;20491;-74
2021/08/28 13:18:01;;;;;;;11.47;11.07;;;23.70;87.10;;;;;;4954827;28;20480;-77
2021/08/28 13:20:29;;;;;;;9.77;9.47;;;23.60;88.20;;;;;;4954470;29;21041;-74
2021/08/28 13:22:57;;;;;;;10.50;10.20;;;23.80;87.20;;;;;;4951538;29;20479;-74
2021/08/28 13:25:26;;;;;;;10.97;10.50;;;23.70;85.50;;;;;;4955295;29;20456;-75
2021/08/28 13:27:54;;;;;;;11.50;10.93;;;24.80;82.20;;;;;;4955214;29;20516;-75
2021/08/28 13:30:24;;;;;;;10.73;10.40;;;24.80;81.40;;;;;;4954889;29;20456;-75
2021/08/28 13:32:59;;;;;;;11.30;11.00;;;24.80;81.50;;;;;;4954726;29;20511;-75
2021/08/28 13:35:26;;;;;;;11.10;10.70;;;25.20;80.90;;;;;;4954951;28;20488;-75
2021/08/28 13:37:52;;;;;;;12.23;11.83;;;25.50;78.80;;;;;;4955026;29;20457;-75
2021/08/28 13:40:19;;;;;;;11.27;10.87;;;25.40;80.60;;;;;;4954652;29;20456;-74
2021/08/28 13:42:47;;;;;;;11.70;11.30;;;25.60;78.80;;;;;;4954669;29;20460;-74
2021/08/28 13:45:16;;;;;;;11.23;10.93;;;25.20;80.70;;;;;;4954680;28;20476;-74
2021/08/28 13:47:43;;;;;;;11.50;11.10;;;24.50;84.80;;;;;;4954571;29;20464;-74
2021/08/28 13:50:10;;;;;;;12.47;11.97;;;24.10;87.20;;;;;;4954526;29;20460;-74
2021/08/28 13:52:38;;;;;;;12.37;11.87;;;23.20;90.50;;;;;;4954667;29;20453;-74
2021/08/28 13:55:05;;;;;;;13.00;12.50;;;23.00;90.70;;;;;;4954321;29;20495;-74
2021/08/28 13:57:32;;;;;;;12.93;12.33;;;23.20;91.60;;;;;;4954347;29;20463;-74
2021/08/28 13:59:59;;;;;;;11.87;11.47;;;24.10;91.50;;;;;;4954392;29;21017;-74
2021/08/28 14:02:27;;;;;;;12.10;11.70;;;24.70;89.30;;;;;;4954023;28;20460;-74
2021/08/28 14:04:54;;;;;;;11.60;11.20;;;24.50;90.30;;;;;;4954588;29;20559;-74
2021/08/28 14:07:20;;;;;;;11.80;11.40;;;25.30;88.80;;;;;;4953912;29;20858;-75
2021/08/28 14:09:47;;;;;;;13.70;13.00;;;25.90;87.70;;;;;;4954436;29;20456;-74
2021/08/28 14:12:14;;;;;;;14.97;14.07;;;26.00;87.40;;;;;;4954327;29;20465;-75
2021/08/28 14:14:40;;;;;;;13.17;12.67;;;26.40;87.20;;;;;;4954481;29;20496;-75
2021/08/28 14:17:07;;;;;;;11.40;11.00;;;27.00;86.30;;;;;;4954312;29;20475;-75
2021/08/28 14:19:35;;;;;;;11.47;10.90;;;27.00;80.30;;;;;;4954112;29;20492;-75
2021/08/28 14:22:02;;;;;;;12.47;11.97;;;25.90;83.00;;;;;;4954210;29;20448;-75
2021/08/28 14:24:29;;;;;;;11.90;11.50;;;25.20;84.90;;;;;;4954257;29;20970;-75
2021/08/28 14:26:56;;;;;;;12.30;11.90;;;25.10;84.80;;;;;;4954459;29;20456;-74
2021/08/28 14:29:22;;;;;;;11.90;11.40;;;24.20;87.30;;;;;;4954276;29;20457;-74
2021/08/28 14:31:49;;;;;;;11.30;11.00;;;24.10;87.60;;;;;;4953999;29;20461;-71
2021/08/28 14:34:17;;;;;;;11.70;11.30;;;23.90;88.80;;;;;;4953930;29;20453;-73
2021/08/28 14:36:47;;;;;;;11.63;11.23;;;23.50;89.80;;;;;;4953852;29;20488;-72
2021/08/28 14:39:14;;;;;;;11.60;11.20;;;22.50;91.70;;;;;;4953842;29;20450;-72
2021/08/28 14:41:40;;;;;;;10.67;10.27;;;22.50;92.70;;;;;;4953951;29;20448;-72
2021/08/28 14:44:09;;;;;;;11.80;11.30;;;22.10;92.90;;;;;;4953909;29;20943;-72
2021/08/28 14:46:35;;;;;;;11.33;10.90;;;22.00;93.40;;;;;;4957346;28;20472;-73
2021/08/28 14:49:02;;;;;;;11.03;10.63;;;21.90;93.50;;;;;;4972778;28;20455;-72
2021/08/28 14:51:29;;;;;;;11.50;11.10;;;22.00;94.10;;;;;;4972773;28;20459;-72
2021/08/28 14:53:57;;;;;;;11.33;10.93;;;21.80;94.90;;;;;;4972996;28;20973;-72
2021/08/28 14:56:24;;;;;;;11.03;10.63;;;21.50;95.40;;;;;;4973051;28;20495;-72
2021/08/28 14:58:50;;;;;;;11.37;10.97;;;21.20;96.30;;;;;;4972928;28;20451;-72
2021/08/28 15:01:17;;;;;;;11.37;11.03;;;21.00;97.00;;;;;;4972881;28;20463;-72
2021/08/28 15:03:45;;;;;;;11.77;11.30;;;20.80;97.30;;;;;;4972707;28;20450;-72
2021/08/28 15:06:11;;;;;;;11.97;11.37;;;20.70;97.80;;;;;;4972974;28;20502;-72
2021/08/28 15:08:38;;;;;;;11.23;10.83;;;20.80;98.50;;;;;;4972790;28;20459;-71
2021/08/28 15:11:06;;;;;;;11.30;10.90;;;21.00;98.50;;;;;;4972715;28;20868;-72
2021/08/28 15:13:33;;;;;;;11.40;10.80;;;21.10;98.20;;;;;;4972015;28;20478;-72
2021/08/28 15:15:59;;;;;;;11.57;11.17;;;21.20;98.40;;;;;;4972540;28;20491;-72
2021/08/28 15:18:26;;;;;;;11.97;11.57;;;21.10;97.90;;;;;;4972456;28;20471;-72
2021/08/28 15:20:53;;;;;;;11.23;10.73;;;20.80;98.40;;;;;;4972261;28;20490;-72
2021/08/28 15:23:19;;;;;;;11.60;11.10;;;20.50;99.20;;;;;;4972493;28;20837;-72
2021/08/28 15:25:46;;;;;;;11.67;11.17;;;20.10;99.90;;;;;;4972350;28;20448;-72
2021/08/28 15:28:14;;;;;;;11.43;10.93;;;19.80;99.90;;;;;;4972457;28;20546;-72
2021/08/28 15:30:41;;;;;;;12.33;11.83;;;19.70;99.90;;;;;;4972406;28;20455;-72
2021/08/28 15:33:08;;;;;;;12.20;11.80;;;19.40;99.90;;;;;;4972170;28;20463;-72
2021/08/28 15:35:34;;;;;;;12.33;11.83;;;19.30;99.90;;;;;;4972317;28;20488;-71
2021/08/28 15:38:01;;;;;;;12.10;11.70;;;19.20;99.90;;;;;;4972136;28;20514;-71
2021/08/28 15:40:28;;;;;;;12.33;11.83;;;19.10;99.90;;;;;;4972141;28;20458;-72
2021/08/28 15:42:54;;;;;;;11.23;10.83;;;19.00;99.90;;;;;;4972268;28;20984;-72
2021/08/28 15:45:23;;;;;;;11.90;11.40;;;19.00;99.90;;;;;;4972698;28;20455;-71
2021/08/28 15:47:49;;;;;;;11.40;10.93;;;18.90;99.90;;;;;;4976151;28;20459;-73
2021/08/28 15:50:18;;;;;;;12.20;11.70;;;18.90;99.90;;;;;;4976740;28;20833;-71
2021/08/28 15:52:45;;;;;;;12.83;12.23;;;18.90;99.90;;;;;;4972053;28;20823;-72
2021/08/28 15:55:13;;;;;;;12.50;11.90;;;18.90;99.90;;;;;;4972044;28;20899;-72
2021/08/28 15:57:41;;;;;;;13.00;12.30;;;18.80;99.90;;;;;;4972074;28;20964;-71
2021/08/28 16:00:10;;;;;;;12.87;11.53;;;18.60;99.90;;;;;;4972082;28;20448;-72
2021/08/28 16:02:38;;;;;;;12.50;11.90;;;18.60;99.90;;;;;;4972027;28;20460;-73
2021/08/28 16:05:07;;;;;;;11.80;11.30;;;18.70;99.90;;;;;;4971853;28;20455;-72
2021/08/28 16:07:34;;;;;;;11.57;11.07;;;18.70;99.90;;;;;;4971812;28;20462;-72
2021/08/28 16:10:01;;;;;;;12.07;11.47;;;18.80;99.90;;;;;;4971786;28;20969;-72
2021/08/28 16:12:28;;;;;;;11.10;10.70;;;18.70;99.90;;;;;;4971954;28;20827;-73
2021/08/28 16:14:57;;;;;;;12.50;11.90;;;18.80;99.90;;;;;;4972006;28;20458;-72
2021/08/28 16:17:24;;;;;;;11.10;10.60;;;18.60;99.90;;;;;;4972032;28;20451;-73
2021/08/28 16:19:52;;;;;;;11.90;11.40;;;18.50;99.90;;;;;;4971878;28;20483;-72
2021/08/28 16:22:19;;;;;;;11.77;11.20;;;18.40;99.90;;;;;;4971595;28;20454;-72
2021/08/28 16:24:46;;;;;;;12.10;11.60;;;18.30;99.90;;;;;;4972675;28;20454;-72
2021/08/28 16:27:13;;;;;;;12.10;11.60;;;18.20;99.90;;;;;;4975614;28;20447;-73
2021/08/28 16:29:41;;;;;;;11.23;10.73;;;18.10;99.90;;;;;;4975480;28;20470;-72
2021/08/28 16:32:08;;;;;;;11.93;11.40;;;18.00;99.90;;;;;;4975849;28;20451;-72
2021/08/28 16:34:35;;;;;;;12.10;11.60;;;17.90;99.90;;;;;;4975447;28;20447;-72
2021/08/28 16:37:04;;;;;;;12.10;11.60;;;17.90;99.90;;;;;;4975414;28;20855;-72
2021/08/28 16:39:30;;;;;;;11.17;10.67;;;17.80;99.90;;;;;;4975109;28;20455;-71
2021/08/28 16:41:57;;;;;;;12.50;11.60;;;17.80;99.90;;;;;;4984438;28;20946;-71
2021/08/28 16:44:24;;;;;;;12.73;12.13;;;17.80;99.90;;;;;;4983089;28;20454;-71
2021/08/28 16:46:51;;;;;;;12.30;11.87;;;17.70;99.90;;;;;;4983970;28;20443;-72
2021/08/28 16:49:17;;;;;;;11.13;10.73;;;17.60;99.90;;;;;;4984322;28;20717;-72
2021/08/28 16:51:44;;;;;;;11.57;11.07;;;17.50;99.90;;;;;;4982479;28;20807;-72
2021/08/28 16:54:12;;;;;;;12.30;11.50;;;17.60;99.90;;;;;;4983806;28;20450;-72